sensor_id;sensor_type;location;lat;lon;timestamp;pressure;altitude;pressure_sealevel;temperature;humidity
76973;BME280;65907;53.640;10.050;2024-01-07T04:44:33;101382.25;;;21.54;35.59
76973;BME280;65907;53.640;10.050;2024-01-07T04:46:58;101392.22;;;21.48;35.76
76973;BME280;65907;53.640;10.050;2024-01-07T04:49:23;101399.97;;;21.50;35.55
76973;BME280;65907;53.640;10.050;2024-01-07T04:51:48;101389.22;;;21.42;35.77
76973;BME280;65907;53.640;10.050;2024-01-07T04:54:13;101404.59;;;21.46;35.46
76973;BME280;65907;53.640;10.050;2024-01-07T04:56:39;101404.84;;;21.43;35.41
76973;BME280;65907;53.640;10.050;2024-01-07T04:59:04;101401.72;;;21.38;35.61
76973;BME280;65907;53.640;10.050;2024-01-07T05:01:29;101408.16;;;21.45;35.38
76973;BME280;65907;53.640;10.050;2024-01-07T05:03:57;101413.16;;;21.48;35.34
76973;BME280;65907;53.640;10.050;2024-01-07T05:06:22;101415.16;;;21.33;35.71
76973;BME280;65907;53.640;10.050;2024-01-07T05:08:47;101423.00;;;21.33;35.70
76973;BME280;65907;53.640;10.050;2024-01-07T05:11:12;101419.91;;;21.40;35.36
76973;BME280;65907;53.640;10.050;2024-01-07T05:13:38;101427.28;;;21.34;35.80
76973;BME280;65907;53.640;10.050;2024-01-07T05:16:03;101423.47;;;21.39;35.66
76973;BME280;65907;53.640;10.050;2024-01-07T05:18:28;101437.56;;;21.25;35.38
76973;BME280;65907;53.640;10.050;2024-01-07T05:20:53;101431.88;;;21.31;35.58
76973;BME280;65907;53.640;10.050;2024-01-07T05:23:18;101439.63;;;21.32;35.47
76973;BME280;65907;53.640;10.050;2024-01-07T05:25:44;101443.69;;;21.37;35.32
76973;BME280;65907;53.640;10.050;2024-01-07T05:28:09;101453.66;;;21.31;35.47
76973;BME280;65907;53.640;10.050;2024-01-07T05:30:35;101450.09;;;21.32;35.20
76973;BME280;65907;53.640;10.050;2024-01-07T05:33:00;101444.25;;;21.29;35.17
76973;BME280;65907;53.640;10.050;2024-01-07T05:35:25;101454.00;;;21.27;35.36
76973;BME280;65907;53.640;10.050;2024-01-07T05:37:50;101460.41;;;21.23;35.62
76973;BME280;65907;53.640;10.050;2024-01-07T05:40:15;101459.13;;;21.28;35.35
76973;BME280;65907;53.640;10.050;2024-01-07T05:42:41;101461.25;;;21.23;35.18
76973;BME280;65907;53.640;10.050;2024-01-07T05:45:06;101464.28;;;21.17;35.33
76973;BME280;65907;53.640;10.050;2024-01-07T05:47:31;101469.41;;;21.18;35.58
76973;BME280;65907;53.640;10.050;2024-01-07T05:49:57;101478.44;;;21.14;35.57
76973;BME280;65907;53.640;10.050;2024-01-07T05:52:22;101475.47;;;21.19;35.34
76973;BME280;65907;53.640;10.050;2024-01-07T05:54:47;101481.66;;;21.18;35.47
76973;BME280;65907;53.640;10.050;2024-01-07T05:57:12;101487.22;;;21.13;35.16
76973;BME280;65907;53.640;10.050;2024-01-07T05:59:38;101483.44;;;21.17;35.14
76973;BME280;65907;53.640;10.050;2024-01-07T06:02:03;101490.78;;;21.12;35.46
76973;BME280;65907;53.640;10.050;2024-01-07T06:04:28;101486.38;;;21.13;35.30
76973;BME280;65907;53.640;10.050;2024-01-07T06:06:54;101498.63;;;21.12;35.19
76973;BME280;65907;53.640;10.050;2024-01-07T06:09:19;101499.59;;;21.11;35.22
76973;BME280;65907;53.640;10.050;2024-01-07T06:11:45;101502.06;;;21.13;35.25
76973;BME280;65907;53.640;10.050;2024-01-07T06:14:10;101510.13;;;21.10;35.35
76973;BME280;65907;53.640;10.050;2024-01-07T06:16:35;101510.47;;;21.05;35.44
76973;BME280;65907;53.640;10.050;2024-01-07T06:19:03;101520.09;;;21.04;35.33
76973;BME280;65907;53.640;10.050;2024-01-07T06:21:28;101529.84;;;21.02;35.67
76973;BME280;65907;53.640;10.050;2024-01-07T06:23:54;101526.50;;;21.00;35.60
76973;BME280;65907;53.640;10.050;2024-01-07T06:26:19;101535.09;;;20.89;35.33
76973;BME280;65907;53.640;10.050;2024-01-07T06:28:44;101545.00;;;20.97;35.55
76973;BME280;65907;53.640;10.050;2024-01-07T06:31:09;101543.00;;;21.01;35.52
76973;BME280;65907;53.640;10.050;2024-01-07T06:33:35;101550.66;;;20.91;35.75
76973;BME280;65907;53.640;10.050;2024-01-07T06:36:00;101557.75;;;21.02;35.16
76973;BME280;65907;53.640;10.050;2024-01-07T06:38:25;101566.66;;;20.99;35.18
76973;BME280;65907;53.640;10.050;2024-01-07T06:40:51;101565.09;;;20.97;35.07
76973;BME280;65907;53.640;10.050;2024-01-07T06:43:16;101563.94;;;20.88;35.58
76973;BME280;65907;53.640;10.050;2024-01-07T06:45:42;101565.31;;;20.94;35.31
76973;BME280;65907;53.640;10.050;2024-01-07T06:48:09;101585.28;;;20.95;35.41
76973;BME280;65907;53.640;10.050;2024-01-07T06:50:36;101582.03;;;20.91;35.50
76973;BME280;65907;53.640;10.050;2024-01-07T06:53:02;101589.38;;;20.86;35.44
76973;BME280;65907;53.640;10.050;2024-01-07T06:55:27;101588.91;;;20.79;35.54
76973;BME280;65907;53.640;10.050;2024-01-07T06:57:52;101594.47;;;20.87;35.56
76973;BME280;65907;53.640;10.050;2024-01-07T07:00:17;101595.22;;;20.89;35.48
76973;BME280;65907;53.640;10.050;2024-01-07T07:02:43;101600.53;;;20.88;35.44
76973;BME280;65907;53.640;10.050;2024-01-07T07:05:08;101616.44;;;20.85;35.28
76973;BME280;65907;53.640;10.050;2024-01-07T07:07:34;101618.13;;;20.86;35.54
76973;BME280;65907;53.640;10.050;2024-01-07T07:09:59;101628.06;;;20.81;35.44
76973;BME280;65907;53.640;10.050;2024-01-07T07:12:24;101622.63;;;20.84;35.07
76973;BME280;65907;53.640;10.050;2024-01-07T07:14:49;101622.38;;;21.00;35.31
76973;BME280;65907;53.640;10.050;2024-01-07T07:17:14;101630.34;;;21.11;35.42
76973;BME280;65907;53.640;10.050;2024-01-07T07:19:40;101629.59;;;21.09;35.48
76973;BME280;65907;53.640;10.050;2024-01-07T07:22:05;101632.84;;;21.13;35.57
76973;BME280;65907;53.640;10.050;2024-01-07T07:24:30;101633.34;;;21.18;35.70
76973;BME280;65907;53.640;10.050;2024-01-07T07:26:55;101631.81;;;21.02;35.70
76973;BME280;65907;53.640;10.050;2024-01-07T07:29:21;101633.88;;;20.97;36.08
76973;BME280;65907;53.640;10.050;2024-01-07T07:31:46;101636.19;;;21.02;36.04
76973;BME280;65907;53.640;10.050;2024-01-07T07:34:11;101649.56;;;21.10;35.88
76973;BME280;65907;53.640;10.050;2024-01-07T07:36:37;101651.78;;;21.03;36.13
76973;BME280;65907;53.640;10.050;2024-01-07T07:39:02;101666.75;;;20.88;36.46
76973;BME280;65907;53.640;10.050;2024-01-07T07:41:27;101671.25;;;20.99;36.02
76973;BME280;65907;53.640;10.050;2024-01-07T07:43:54;101671.84;;;21.16;35.72
76973;BME280;65907;53.640;10.050;2024-01-07T07:46:20;101673.66;;;21.02;36.15
76973;BME280;65907;53.640;10.050;2024-01-07T07:48:45;101684.94;;;21.03;36.12
76973;BME280;65907;53.640;10.050;2024-01-07T07:51:10;101687.03;;;21.11;36.34
76973;BME280;65907;53.640;10.050;2024-01-07T07:53:37;101682.09;;;21.06;34.33
76973;BME280;65907;53.640;10.050;2024-01-07T07:56:03;101698.38;;;19.46;28.14
76973;BME280;65907;53.640;10.050;2024-01-07T07:58:31;101699.69;;;17.37;27.92
76973;BME280;65907;53.640;10.050;2024-01-07T08:00:56;101697.06;;;18.65;29.63
76973;BME280;65907;53.640;10.050;2024-01-07T08:03:22;101706.94;;;19.48;30.93
76973;BME280;65907;53.640;10.050;2024-01-07T08:05:47;101706.34;;;19.87;31.88
76973;BME280;65907;53.640;10.050;2024-01-07T08:08:12;101708.44;;;20.37;31.92
76973;BME280;65907;53.640;10.050;2024-01-07T08:10:37;101709.56;;;20.60;32.01
76973;BME280;65907;53.640;10.050;2024-01-07T08:13:04;101714.88;;;20.58;32.45
76973;BME280;65907;53.640;10.050;2024-01-07T08:15:29;101716.16;;;20.78;32.43
76973;BME280;65907;53.640;10.050;2024-01-07T08:17:54;101718.31;;;20.99;32.71
76973;BME280;65907;53.640;10.050;2024-01-07T08:20:19;101730.31;;;21.15;32.54
76973;BME280;65907;53.640;10.050;2024-01-07T08:22:45;101730.25;;;21.16;32.58
76973;BME280;65907;53.640;10.050;2024-01-07T08:25:10;101731.91;;;21.17;32.78
76973;BME280;65907;53.640;10.050;2024-01-07T08:27:36;101726.38;;;21.22;33.23
76973;BME280;65907;53.640;10.050;2024-01-07T08:30:04;101731.25;;;21.40;33.21
76973;BME280;65907;53.640;10.050;2024-01-07T08:32:30;101729.69;;;21.50;33.25
76973;BME280;65907;53.640;10.050;2024-01-07T08:34:55;101742.03;;;21.61;33.73
76973;BME280;65907;53.640;10.050;2024-01-07T08:37:22;101736.59;;;21.51;34.31
76973;BME280;65907;53.640;10.050;2024-01-07T08:39:48;101749.47;;;21.67;33.93
76973;BME280;65907;53.640;10.050;2024-01-07T08:42:18;101749.75;;;21.62;34.33
76973;BME280;65907;53.640;10.050;2024-01-07T08:44:44;101753.03;;;21.66;34.35
76973;BME280;65907;53.640;10.050;2024-01-07T08:47:12;101746.19;;;21.76;34.58
76973;BME280;65907;53.640;10.050;2024-01-07T08:49:38;101753.81;;;21.92;34.32
76973;BME280;65907;53.640;10.050;2024-01-07T08:52:03;101757.00;;;22.09;34.37
76973;BME280;65907;53.640;10.050;2024-01-07T08:54:29;101755.94;;;22.12;34.43
76973;BME280;65907;53.640;10.050;2024-01-07T08:56:56;101755.50;;;22.18;34.33
76973;BME280;65907;53.640;10.050;2024-01-07T08:59:21;101758.91;;;22.31;34.34
76973;BME280;65907;53.640;10.050;2024-01-07T09:01:47;101769.59;;;22.28;34.30
76973;BME280;65907;53.640;10.050;2024-01-07T09:04:12;101768.94;;;22.38;34.18
76973;BME280;65907;53.640;10.050;2024-01-07T09:06:37;101772.16;;;22.41;34.24
76973;BME280;65907;53.640;10.050;2024-01-07T09:09:03;101770.91;;;22.47;34.35
76973;BME280;65907;53.640;10.050;2024-01-07T09:11:31;101779.50;;;22.49;34.16
76973;BME280;65907;53.640;10.050;2024-01-07T09:13:56;101780.50;;;22.59;34.12
76973;BME280;65907;53.640;10.050;2024-01-07T09:16:25;101792.34;;;22.76;34.27
76973;BME280;65907;53.640;10.050;2024-01-07T09:18:54;101777.41;;;22.66;33.96
76973;BME280;65907;53.640;10.050;2024-01-07T09:21:20;101788.44;;;22.58;34.40
76973;BME280;65907;53.640;10.050;2024-01-07T09:23:45;101784.06;;;22.58;34.26
76973;BME280;65907;53.640;10.050;2024-01-07T09:26:11;101793.28;;;22.75;33.26
76973;BME280;65907;53.640;10.050;2024-01-07T09:28:36;101792.81;;;22.82;33.60
76973;BME280;65907;53.640;10.050;2024-01-07T09:31:02;101791.78;;;22.84;33.82
76973;BME280;65907;53.640;10.050;2024-01-07T09:33:29;101798.59;;;22.98;33.89
76973;BME280;65907;53.640;10.050;2024-01-07T09:35:54;101798.84;;;23.06;33.95
76973;BME280;65907;53.640;10.050;2024-01-07T09:38:20;101808.78;;;23.14;33.99
76973;BME280;65907;53.640;10.050;2024-01-07T09:40:47;101802.56;;;23.15;33.95
76973;BME280;65907;53.640;10.050;2024-01-07T09:43:15;101802.16;;;22.86;29.06
76973;BME280;65907;53.640;10.050;2024-01-07T09:45:41;101818.44;;;18.37;25.12
76973;BME280;65907;53.640;10.050;2024-01-07T09:48:09;101816.44;;;17.06;25.40
76973;BME280;65907;53.640;10.050;2024-01-07T09:50:37;101834.97;;;16.04;25.59
76973;BME280;65907;53.640;10.050;2024-01-07T09:53:06;101837.72;;;15.39;26.36
76973;BME280;65907;53.640;10.050;2024-01-07T09:58:13;101820.63;;;19.53;25.88
76973;BME280;65907;53.640;10.050;2024-01-07T10:00:44;101823.44;;;20.49;26.09
76973;BME280;65907;53.640;10.050;2024-01-07T10:03:17;101824.03;;;20.95;26.37
76973;BME280;65907;53.640;10.050;2024-01-07T10:05:49;101823.56;;;21.42;26.42
76973;BME280;65907;53.640;10.050;2024-01-07T10:08:15;101822.81;;;21.53;26.69
76973;BME280;65907;53.640;10.050;2024-01-07T10:10:48;101814.88;;;21.80;27.23
76973;BME280;65907;53.640;10.050;2024-01-07T10:13:15;101817.34;;;22.08;27.39
76973;BME280;65907;53.640;10.050;2024-01-07T10:15:41;101820.59;;;21.98;28.02
76973;BME280;65907;53.640;10.050;2024-01-07T10:18:07;101824.34;;;22.07;28.15
76973;BME280;65907;53.640;10.050;2024-01-07T10:20:33;101814.47;;;22.24;28.44
76973;BME280;65907;53.640;10.050;2024-01-07T10:23:00;101825.81;;;22.11;28.90
76973;BME280;65907;53.640;10.050;2024-01-07T10:25:25;101818.38;;;22.18;29.18
76973;BME280;65907;53.640;10.050;2024-01-07T10:27:52;101822.00;;;22.28;29.12
76973;BME280;65907;53.640;10.050;2024-01-07T10:30:18;101822.91;;;22.40;29.47
76973;BME280;65907;53.640;10.050;2024-01-07T10:32:44;101820.75;;;22.58;29.30
76973;BME280;65907;53.640;10.050;2024-01-07T10:35:13;101823.31;;;22.71;29.48
76973;BME280;65907;53.640;10.050;2024-01-07T10:37:43;101810.38;;;22.92;29.60
76973;BME280;65907;53.640;10.050;2024-01-07T10:40:16;101814.09;;;23.01;29.89
76973;BME280;65907;53.640;10.050;2024-01-07T10:42:43;101814.53;;;23.19;29.67
76973;BME280;65907;53.640;10.050;2024-01-07T10:45:10;101811.72;;;23.57;29.22
76973;BME280;65907;53.640;10.050;2024-01-07T10:47:43;101815.06;;;23.70;29.44
76973;BME280;65907;53.640;10.050;2024-01-07T10:50:11;101809.34;;;23.42;30.11
76973;BME280;65907;53.640;10.050;2024-01-07T10:52:41;101813.50;;;23.45;30.24
76973;BME280;65907;53.640;10.050;2024-01-07T10:55:10;101816.97;;;23.45;30.22
76973;BME280;65907;53.640;10.050;2024-01-07T10:57:42;101815.66;;;23.51;30.38
76973;BME280;65907;53.640;10.050;2024-01-07T11:00:09;101820.91;;;23.51;30.62
76973;BME280;65907;53.640;10.050;2024-01-07T11:05:33;101829.84;;;23.60;30.80
76973;BME280;65907;53.640;10.050;2024-01-07T11:10:28;101832.03;;;24.12;30.77
76973;BME280;65907;53.640;10.050;2024-01-07T11:13:01;101833.81;;;23.77;30.99
76973;BME280;65907;53.640;10.050;2024-01-07T11:15:54;101823.78;;;23.71;30.96
76973;BME280;65907;53.640;10.050;2024-01-07T11:18:30;101831.19;;;23.77;31.21
76973;BME280;65907;53.640;10.050;2024-01-07T11:20:59;101826.66;;;23.79;31.19
76973;BME280;65907;53.640;10.050;2024-01-07T11:23:27;101827.13;;;23.84;31.41
76973;BME280;65907;53.640;10.050;2024-01-07T11:25:55;101826.97;;;23.86;31.35
76973;BME280;65907;53.640;10.050;2024-01-07T11:28:42;101829.38;;;24.12;31.51
76973;BME280;65907;53.640;10.050;2024-01-07T11:31:07;101826.50;;;24.15;31.23
76973;BME280;65907;53.640;10.050;2024-01-07T11:33:33;101827.34;;;24.15;31.15
76973;BME280;65907;53.640;10.050;2024-01-07T11:35:59;101824.59;;;24.17;31.09
76973;BME280;65907;53.640;10.050;2024-01-07T11:38:29;101816.56;;;24.18;31.09
76973;BME280;65907;53.640;10.050;2024-01-07T11:40:55;101826.50;;;24.15;31.29
76973;BME280;65907;53.640;10.050;2024-01-07T11:43:23;101823.38;;;24.21;31.20
76973;BME280;65907;53.640;10.050;2024-01-07T11:45:51;101828.03;;;24.17;31.44
76973;BME280;65907;53.640;10.050;2024-01-07T11:48:20;101828.75;;;24.19;31.47
76973;BME280;65907;53.640;10.050;2024-01-07T11:50:48;101833.28;;;24.17;31.60
76973;BME280;65907;53.640;10.050;2024-01-07T11:53:13;101828.03;;;24.17;31.54
76973;BME280;65907;53.640;10.050;2024-01-07T11:55:40;101830.41;;;24.20;31.58
76973;BME280;65907;53.640;10.050;2024-01-07T11:58:06;101826.97;;;24.20;31.78
76973;BME280;65907;53.640;10.050;2024-01-07T12:00:31;101819.19;;;24.18;30.92
76973;BME280;65907;53.640;10.050;2024-01-07T12:02:58;101827.09;;;24.18;31.04
76973;BME280;65907;53.640;10.050;2024-01-07T12:05:23;101822.31;;;24.12;31.64
76973;BME280;65907;53.640;10.050;2024-01-07T12:07:48;101821.88;;;24.07;31.57
76973;BME280;65907;53.640;10.050;2024-01-07T12:10:14;101821.00;;;24.06;31.66
76973;BME280;65907;53.640;10.050;2024-01-07T12:12:40;101826.97;;;24.09;31.74
76973;BME280;65907;53.640;10.050;2024-01-07T12:15:07;101826.16;;;24.08;31.88
76973;BME280;65907;53.640;10.050;2024-01-07T12:17:32;101824.84;;;24.14;31.69
76973;BME280;65907;53.640;10.050;2024-01-07T12:19:58;101826.63;;;24.13;31.64
76973;BME280;65907;53.640;10.050;2024-01-07T12:22:29;101827.59;;;24.12;31.84
76973;BME280;65907;53.640;10.050;2024-01-07T12:25:01;101830.09;;;24.14;31.84
76973;BME280;65907;53.640;10.050;2024-01-07T12:27:28;101832.97;;;24.11;31.69
76973;BME280;65907;53.640;10.050;2024-01-07T12:29:54;101832.72;;;24.14;31.88
76973;BME280;65907;53.640;10.050;2024-01-07T12:32:20;101832.09;;;24.22;31.76
76973;BME280;65907;53.640;10.050;2024-01-07T12:34:45;101836.88;;;24.16;31.83
76973;BME280;65907;53.640;10.050;2024-01-07T12:37:13;101832.84;;;24.24;32.20
76973;BME280;65907;53.640;10.050;2024-01-07T12:39:39;101822.06;;;24.27;31.74
76973;BME280;65907;53.640;10.050;2024-01-07T12:42:04;101830.88;;;24.37;31.96
76973;BME280;65907;53.640;10.050;2024-01-07T12:44:29;101835.91;;;24.29;32.17
76973;BME280;65907;53.640;10.050;2024-01-07T12:49:29;101836.16;;;24.26;31.22
76973;BME280;65907;53.640;10.050;2024-01-07T12:51:55;101837.34;;;24.22;31.67
76973;BME280;65907;53.640;10.050;2024-01-07T12:54:20;101832.28;;;24.41;31.48
76973;BME280;65907;53.640;10.050;2024-01-07T12:56:46;101839.00;;;24.45;31.52
76973;BME280;65907;53.640;10.050;2024-01-07T12:59:11;101834.03;;;24.52;31.20
76973;BME280;65907;53.640;10.050;2024-01-07T13:01:37;101847.66;;;24.57;31.40
76973;BME280;65907;53.640;10.050;2024-01-07T13:04:04;101842.53;;;24.56;31.37
76973;BME280;65907;53.640;10.050;2024-01-07T13:06:31;101836.06;;;24.60;31.21
76973;BME280;65907;53.640;10.050;2024-01-07T13:08:59;101841.91;;;24.63;31.35
76973;BME280;65907;53.640;10.050;2024-01-07T13:11:27;101843.56;;;24.65;31.28
76973;BME280;65907;53.640;10.050;2024-01-07T13:13:55;101844.97;;;24.69;31.38
76973;BME280;65907;53.640;10.050;2024-01-07T13:16:25;101844.41;;;24.76;31.22
76973;BME280;65907;53.640;10.050;2024-01-07T13:18:50;101846.50;;;24.83;31.32
76973;BME280;65907;53.640;10.050;2024-01-07T13:21:15;101851.50;;;24.86;31.14
76973;BME280;65907;53.640;10.050;2024-01-07T13:23:41;101853.66;;;24.92;30.96
76973;BME280;65907;53.640;10.050;2024-01-07T13:26:09;101850.63;;;24.97;31.01
76973;BME280;65907;53.640;10.050;2024-01-07T13:28:35;101849.81;;;24.96;31.18
76973;BME280;65907;53.640;10.050;2024-01-07T13:31:00;101849.47;;;24.89;31.54
76973;BME280;65907;53.640;10.050;2024-01-07T13:33:25;101848.75;;;24.87;31.15
76973;BME280;65907;53.640;10.050;2024-01-07T13:35:50;101855.44;;;24.91;31.25
76973;BME280;65907;53.640;10.050;2024-01-07T13:38:19;101856.28;;;24.92;31.23
76973;BME280;65907;53.640;10.050;2024-01-07T13:40:47;101851.25;;;24.89;31.30
76973;BME280;65907;53.640;10.050;2024-01-07T13:43:12;101854.47;;;24.92;31.19
76973;BME280;65907;53.640;10.050;2024-01-07T13:45:38;101861.06;;;24.87;31.24
76973;BME280;65907;53.640;10.050;2024-01-07T13:48:03;101851.50;;;24.86;31.26
76973;BME280;65907;53.640;10.050;2024-01-07T13:50:28;101860.00;;;24.89;31.74
76973;BME280;65907;53.640;10.050;2024-01-07T13:52:54;101858.84;;;25.03;29.59
76973;BME280;65907;53.640;10.050;2024-01-07T13:55:19;101866.28;;;24.98;30.04
76973;BME280;65907;53.640;10.050;2024-01-07T13:57:44;101865.91;;;25.03;30.23
76973;BME280;65907;53.640;10.050;2024-01-07T14:00:11;101865.97;;;25.13;29.64
76973;BME280;65907;53.640;10.050;2024-01-07T14:02:38;101869.97;;;25.07;29.78
76973;BME280;65907;53.640;10.050;2024-01-07T14:05:05;101869.31;;;25.15;29.76
76973;BME280;65907;53.640;10.050;2024-01-07T14:07:35;101870.00;;;25.38;29.48
76973;BME280;65907;53.640;10.050;2024-01-07T14:10:00;101874.91;;;25.43;29.17
76973;BME280;65907;53.640;10.050;2024-01-07T14:12:28;101876.28;;;25.68;28.96
76973;BME280;65907;53.640;10.050;2024-01-07T14:14:53;101881.75;;;25.76;28.76
76973;BME280;65907;53.640;10.050;2024-01-07T14:17:18;101880.63;;;25.79;28.75
76973;BME280;65907;53.640;10.050;2024-01-07T14:19:43;101885.94;;;25.89;28.60
76973;BME280;65907;53.640;10.050;2024-01-07T14:22:11;101884.69;;;25.93;28.56
76973;BME280;65907;53.640;10.050;2024-01-07T14:24:36;101885.94;;;25.89;28.51
76973;BME280;65907;53.640;10.050;2024-01-07T14:27:01;101888.75;;;25.97;28.49
76973;BME280;65907;53.640;10.050;2024-01-07T14:29:27;101895.53;;;26.00;28.38
76973;BME280;65907;53.640;10.050;2024-01-07T14:31:52;101892.38;;;26.06;28.32
76973;BME280;65907;53.640;10.050;2024-01-07T14:34:17;101890.16;;;26.01;28.18
76973;BME280;65907;53.640;10.050;2024-01-07T14:36:42;101895.13;;;25.95;28.47
76973;BME280;65907;53.640;10.050;2024-01-07T14:39:08;101895.72;;;26.08;28.29
76973;BME280;65907;53.640;10.050;2024-01-07T14:41:34;101896.84;;;26.15;28.22
76973;BME280;65907;53.640;10.050;2024-01-07T14:44:00;101902.22;;;26.04;28.44
76973;BME280;65907;53.640;10.050;2024-01-07T14:46:25;101910.53;;;25.99;28.45
76973;BME280;65907;53.640;10.050;2024-01-07T14:48:50;101912.91;;;26.02;28.35
76973;BME280;65907;53.640;10.050;2024-01-07T14:51:15;101913.44;;;25.96;28.47
76973;BME280;65907;53.640;10.050;2024-01-07T14:53:41;101912.44;;;25.87;28.62
76973;BME280;65907;53.640;10.050;2024-01-07T14:56:06;101923.56;;;26.01;28.30
76973;BME280;65907;53.640;10.050;2024-01-07T14:58:32;101922.44;;;25.94;28.50
76973;BME280;65907;53.640;10.050;2024-01-07T15:00:57;101924.25;;;25.29;28.92
76973;BME280;65907;53.640;10.050;2024-01-07T15:03:23;101926.31;;;25.26;28.92
76973;BME280;65907;53.640;10.050;2024-01-07T15:05:48;101932.38;;;25.59;28.86
76973;BME280;65907;53.640;10.050;2024-01-07T15:08:13;101931.03;;;25.65;29.09
76973;BME280;65907;53.640;10.050;2024-01-07T15:10:39;101939.06;;;25.42;29.04
76973;BME280;65907;53.640;10.050;2024-01-07T15:13:04;101941.50;;;25.01;30.01
76973;BME280;65907;53.640;10.050;2024-01-07T15:15:30;101940.03;;;24.75;28.94
76973;BME280;65907;53.640;10.050;2024-01-07T15:17:55;101947.31;;;24.72;29.38
76973;BME280;65907;53.640;10.050;2024-01-07T15:20:21;101945.31;;;24.41;30.63
76973;BME280;65907;53.640;10.050;2024-01-07T15:22:46;101948.56;;;24.33;31.31
76973;BME280;65907;53.640;10.050;2024-01-07T15:25:11;101953.09;;;24.31;31.37
76973;BME280;65907;53.640;10.050;2024-01-07T15:27:37;101956.81;;;24.40;31.08
76973;BME280;65907;53.640;10.050;2024-01-07T15:30:02;101957.06;;;24.26;31.13
76973;BME280;65907;53.640;10.050;2024-01-07T15:32:29;101951.53;;;24.52;31.09
76973;BME280;65907;53.640;10.050;2024-01-07T15:34:57;101963.34;;;24.69;31.13
76973;BME280;65907;53.640;10.050;2024-01-07T15:37:23;101962.97;;;24.62;31.33
76973;BME280;65907;53.640;10.050;2024-01-07T15:39:48;101960.59;;;24.59;31.86
76973;BME280;65907;53.640;10.050;2024-01-07T15:42:17;101964.66;;;24.74;31.92
76973;BME280;65907;53.640;10.050;2024-01-07T15:44:43;101968.63;;;24.80;31.80
76973;BME280;65907;53.640;10.050;2024-01-07T15:47:09;101964.78;;;24.84;32.06
76973;BME280;65907;53.640;10.050;2024-01-07T15:49:34;101972.63;;;24.96;31.84
76973;BME280;65907;53.640;10.050;2024-01-07T15:52:00;101966.75;;;25.03;31.98
76973;BME280;65907;53.640;10.050;2024-01-07T15:54:25;101982.72;;;25.12;31.90
76973;BME280;65907;53.640;10.050;2024-01-07T15:56:50;101974.22;;;25.19;32.05
76973;BME280;65907;53.640;10.050;2024-01-07T15:59:15;101979.56;;;25.29;31.97
76973;BME280;65907;53.640;10.050;2024-01-07T16:01:48;101982.41;;;25.38;31.77
76973;BME280;65907;53.640;10.050;2024-01-07T16:04:16;101988.69;;;25.46;31.50
76973;BME280;65907;53.640;10.050;2024-01-07T16:06:41;101993.38;;;25.43;31.91
76973;BME280;65907;53.640;10.050;2024-01-07T16:09:08;101996.38;;;25.50;31.73
76973;BME280;65907;53.640;10.050;2024-01-07T16:11:33;101998.34;;;25.57;31.73
76973;BME280;65907;53.640;10.050;2024-01-07T16:13:58;102000.00;;;25.58;31.98
76973;BME280;65907;53.640;10.050;2024-01-07T16:16:23;102009.34;;;25.62;31.92
76973;BME280;65907;53.640;10.050;2024-01-07T16:18:49;102008.84;;;25.69;31.85
76973;BME280;65907;53.640;10.050;2024-01-07T16:21:14;102010.63;;;25.68;31.96
76973;BME280;65907;53.640;10.050;2024-01-07T16:23:40;102015.50;;;25.73;31.81
76973;BME280;65907;53.640;10.050;2024-01-07T16:26:06;102010.13;;;25.74;31.89
76973;BME280;65907;53.640;10.050;2024-01-07T16:28:33;102006.91;;;25.71;31.99
76973;BME280;65907;53.640;10.050;2024-01-07T16:31:02;102006.78;;;25.72;31.96
76973;BME280;65907;53.640;10.050;2024-01-07T16:33:27;102012.19;;;25.71;32.22
76973;BME280;65907;53.640;10.050;2024-01-07T16:35:52;102017.31;;;25.72;32.07
76973;BME280;65907;53.640;10.050;2024-01-07T16:38:17;102019.22;;;25.70;32.35
76973;BME280;65907;53.640;10.050;2024-01-07T16:40:44;102020.78;;;25.73;32.06
76973;BME280;65907;53.640;10.050;2024-01-07T16:43:09;102025.59;;;25.68;32.54
76973;BME280;65907;53.640;10.050;2024-01-07T16:45:34;102026.25;;;25.60;32.45
76973;BME280;65907;53.640;10.050;2024-01-07T16:48:00;102025.97;;;25.63;32.31
76973;BME280;65907;53.640;10.050;2024-01-07T16:50:27;102022.53;;;25.62;32.33
76973;BME280;65907;53.640;10.050;2024-01-07T16:52:53;102027.38;;;25.67;32.41
76973;BME280;65907;53.640;10.050;2024-01-07T16:55:18;102027.78;;;25.62;32.39
76973;BME280;65907;53.640;10.050;2024-01-07T16:57:43;102031.94;;;25.65;32.12
76973;BME280;65907;53.640;10.050;2024-01-07T17:00:09;102034.03;;;25.61;32.42
76973;BME280;65907;53.640;10.050;2024-01-07T17:02:35;102036.44;;;25.53;32.53
76973;BME280;65907;53.640;10.050;2024-01-07T17:05:00;102036.81;;;25.48;32.63
76973;BME280;65907;53.640;10.050;2024-01-07T17:07:26;102042.94;;;25.49;32.52
76973;BME280;65907;53.640;10.050;2024-01-07T17:09:53;102043.31;;;25.33;32.01
76973;BME280;65907;53.640;10.050;2024-01-07T17:12:18;102039.50;;;24.25;26.88
76973;BME280;65907;53.640;10.050;2024-01-07T17:14:45;102040.25;;;25.16;30.35
76973;BME280;65907;53.640;10.050;2024-01-07T17:17:10;102044.06;;;25.24;31.03
76973;BME280;65907;53.640;10.050;2024-01-07T17:19:36;102043.16;;;25.46;31.14
76973;BME280;65907;53.640;10.050;2024-01-07T17:22:01;102048.28;;;25.59;31.25
76973;BME280;65907;53.640;10.050;2024-01-07T17:24:26;102040.97;;;25.84;30.99
76973;BME280;65907;53.640;10.050;2024-01-07T17:26:52;102044.66;;;25.81;31.23
76973;BME280;65907;53.640;10.050;2024-01-07T17:29:20;102040.91;;;25.95;31.38